createdAt,value
2018-09-03T00:00:22.811Z,0.00
2018-09-03T00:01:23.054Z,0.00
2018-09-03T00:02:23.292Z,0.00
2018-09-03T00:03:23.539Z,0.00
2018-09-03T00:04:23.777Z,0.00
2018-09-03T00:05:24.019Z,0.00
2018-09-03T00:06:24.260Z,0.00
2018-09-03T00:07:24.500Z,0.00
2018-09-03T00:08:24.743Z,0.00
2018-09-03T00:09:24.985Z,0.00
2018-09-03T00:10:25.226Z,0.00
2018-09-03T00:11:25.469Z,0.00
2018-09-03T00:12:25.711Z,0.00
2018-09-03T00:13:25.951Z,0.00
2018-09-03T00:14:26.200Z,0.00
2018-09-03T00:15:26.436Z,0.00
2018-09-03T00:16:26.678Z,0.00
2018-09-03T00:17:26.919Z,0.00
2018-09-03T00:18:27.160Z,0.00
2018-09-03T00:19:27.402Z,0.00
2018-09-03T00:20:27.644Z,0.00
2018-09-03T00:21:27.886Z,0.00
2018-09-03T00:22:28.128Z,0.00
2018-09-03T00:23:28.368Z,0.00
2018-09-03T00:24:28.610Z,0.00
2018-09-03T00:25:28.851Z,0.00
2018-09-03T00:26:29.094Z,0.00
2018-09-03T00:27:29.335Z,0.00
2018-09-03T00:28:29.579Z,0.00
2018-09-03T00:29:29.819Z,0.00
2018-09-03T00:30:30.063Z,0.00
2018-09-03T00:31:30.305Z,0.00
2018-09-03T00:32:30.547Z,0.00
2018-09-03T00:33:30.791Z,0.00
2018-09-03T00:34:31.034Z,0.00
2018-09-03T00:35:31.277Z,0.00
2018-09-03T00:36:31.518Z,0.00
2018-09-03T00:37:31.759Z,0.00
2018-09-03T00:38:32.001Z,0.00
2018-09-03T00:39:32.244Z,0.00
2018-09-03T00:40:32.489Z,0.00
2018-09-03T00:41:32.730Z,0.00
2018-09-03T00:42:32.969Z,0.00
2018-09-03T00:43:33.215Z,0.00
2018-09-03T00:44:33.450Z,0.00
2018-09-03T00:45:33.696Z,0.00
2018-09-03T00:46:33.939Z,0.00
2018-09-03T00:47:34.177Z,0.00
2018-09-03T00:48:34.420Z,0.00
2018-09-03T00:49:34.661Z,0.00
2018-09-03T00:50:34.903Z,0.00
2018-09-03T00:51:35.144Z,0.00
2018-09-03T00:52:35.385Z,0.00
2018-09-03T00:53:35.626Z,0.00
2018-09-03T00:54:35.868Z,0.00
2018-09-03T00:55:36.110Z,0.00
2018-09-03T00:56:36.352Z,0.00
2018-09-03T00:57:36.601Z,0.00
2018-09-03T00:58:36.838Z,0.00
2018-09-03T00:59:37.084Z,0.00
2018-09-03T01:00:37.314Z,0.00
2018-09-03T01:01:37.553Z,0.00
2018-09-03T01:02:37.795Z,0.00
2018-09-03T01:03:38.036Z,0.00
2018-09-03T01:04:38.281Z,0.00
2018-09-03T01:05:38.520Z,0.57
2018-09-03T01:06:38.762Z,1.34
2018-09-03T01:07:39.004Z,2.11
2018-09-03T01:08:39.246Z,2.29
2018-09-03T01:09:39.489Z,3.44
2018-09-03T01:10:39.730Z,3.92
2018-09-03T01:11:39.973Z,4.97
2018-09-03T01:12:40.217Z,5.74
2018-09-03T01:13:40.457Z,6.41
2018-09-03T01:14:40.702Z,7.18
2018-09-03T01:15:40.948Z,8.33
2018-09-03T01:16:41.187Z,9.86
2018-09-03T01:17:41.428Z,10.14
2018-09-03T01:18:41.671Z,11.58
2018-09-03T01:19:41.912Z,12.26
2018-09-03T01:20:42.155Z,13.31
2018-09-03T01:21:42.398Z,14.07
2018-09-03T01:22:42.639Z,14.84
2018-09-03T01:23:42.882Z,15.41
2018-09-03T01:24:43.124Z,16.75
2018-09-03T01:25:43.367Z,17.23
2018-09-03T01:26:43.610Z,17.90
2018-09-03T01:27:43.851Z,19.05
2018-09-03T01:28:44.094Z,19.62
2018-09-03T01:29:44.389Z,20.01
2018-09-03T01:30:44.578Z,20.78
2018-09-03T01:31:44.822Z,21.45
2018-09-03T01:32:45.065Z,22.21
2018-09-03T01:33:45.307Z,22.40
2018-09-03T01:34:45.549Z,22.88
2018-09-03T01:35:45.791Z,23.84
2018-09-03T01:36:46.034Z,24.13
2018-09-03T01:37:46.279Z,24.70
2018-09-03T01:38:46.519Z,24.80
2018-09-03T01:39:46.762Z,24.60
2018-09-03T01:40:47.004Z,24.70
2018-09-03T01:41:47.249Z,24.03
2018-09-03T01:42:47.491Z,23.36
2018-09-03T01:43:47.731Z,22.50
2018-09-03T01:44:47.974Z,21.83
2018-09-03T01:45:48.217Z,21.06
2018-09-03T01:46:48.460Z,19.92
2018-09-03T01:47:48.702Z,19.43
2018-09-03T01:48:48.944Z,18.86
2018-09-03T01:49:49.187Z,18.76
2018-09-03T01:50:49.429Z,18.09
2018-09-03T01:51:49.670Z,18.38
2018-09-03T01:52:49.914Z,17.80
2018-09-03T01:53:50.155Z,18.29
2018-09-03T01:54:50.397Z,18.00
2018-09-03T01:55:50.641Z,17.90
2018-09-03T01:56:50.882Z,18.76
2018-09-03T01:57:51.124Z,18.86
2018-09-03T01:58:51.367Z,18.67
2018-09-03T01:59:51.609Z,19.05
2018-09-03T02:00:51.854Z,19.24
2018-09-03T02:01:52.096Z,19.24
2018-09-03T02:02:52.337Z,19.72
2018-09-03T02:03:52.581Z,20.10
2018-09-03T02:04:52.823Z,20.39
2018-09-03T02:05:53.068Z,20.39
2018-09-03T02:06:53.310Z,20.58
2018-09-03T02:07:53.551Z,20.58
2018-09-03T02:08:53.793Z,20.87
2018-09-03T02:09:54.036Z,20.97
2018-09-03T02:10:54.278Z,21.15
2018-09-03T02:11:54.521Z,20.97
2018-09-03T02:12:54.764Z,21.54
2018-09-03T02:13:55.006Z,21.73
2018-09-03T02:14:55.248Z,21.92
2018-09-03T02:15:55.491Z,21.73
2018-09-03T02:16:55.734Z,22.60
2018-09-03T02:17:55.976Z,22.50
2018-09-03T02:18:56.221Z,22.98
2018-09-03T02:19:56.463Z,23.27
2018-09-03T02:20:56.707Z,23.93
2018-09-03T02:21:56.948Z,24.13
2018-09-03T02:22:57.190Z,24.22
2018-09-03T02:23:57.432Z,24.32
2018-09-03T02:24:57.677Z,24.41
2018-09-03T02:25:57.923Z,24.60
2018-09-03T02:26:58.159Z,25.09
2018-09-03T02:27:58.403Z,25.56
2018-09-03T02:28:58.645Z,25.85
2018-09-03T02:29:58.886Z,25.75
2018-09-03T02:30:59.122Z,25.85
2018-09-03T02:31:59.381Z,26.14
2018-09-03T02:32:59.623Z,26.52
2018-09-03T02:33:59.867Z,26.71
2018-09-03T02:35:00.110Z,26.42
2018-09-03T02:36:00.351Z,27.00
2018-09-03T02:37:00.593Z,26.90
2018-09-03T02:38:00.837Z,27.19
2018-09-03T02:39:01.080Z,26.71
2018-09-03T02:40:01.321Z,26.71
2018-09-03T02:41:01.564Z,26.81
2018-09-03T02:42:01.806Z,26.90
2018-09-03T02:43:02.049Z,27.09
2018-09-03T02:44:02.296Z,27.09
2018-09-03T02:45:02.534Z,27.58
2018-09-03T02:46:02.777Z,27.86
2018-09-03T02:47:03.021Z,27.95
2018-09-03T02:48:03.263Z,28.15
2018-09-03T02:49:03.505Z,27.28
2018-09-03T02:50:03.747Z,26.81
2018-09-03T02:51:03.988Z,26.33
2018-09-03T02:52:04.233Z,26.23
2018-09-03T02:53:04.475Z,26.04
2018-09-03T02:54:04.717Z,26.23
2018-09-03T02:55:04.961Z,26.23
2018-09-03T02:56:05.206Z,25.95
2018-09-03T02:57:05.447Z,26.14
2018-09-03T02:58:05.688Z,26.23
2018-09-03T02:59:05.933Z,26.23
2018-09-03T03:00:06.177Z,25.66
2018-09-03T03:01:06.416Z,25.46
2018-09-03T03:02:06.659Z,25.75
2018-09-03T03:03:06.902Z,25.66
2018-09-03T03:04:07.149Z,25.56
2018-09-03T03:05:07.388Z,25.95
2018-09-03T03:06:07.630Z,26.23
2018-09-03T03:07:07.872Z,26.52
2018-09-03T03:08:08.114Z,26.71
2018-09-03T03:09:08.357Z,26.52
2018-09-03T03:10:08.599Z,26.81
2018-09-03T03:11:08.842Z,26.90
2018-09-03T03:12:09.083Z,26.62
2018-09-03T03:13:09.325Z,26.62
2018-09-03T03:14:09.568Z,26.81
2018-09-03T03:15:09.812Z,26.52
2018-09-03T03:16:10.052Z,26.90
2018-09-03T03:17:10.293Z,27.28
2018-09-03T03:18:10.537Z,27.28
2018-09-03T03:19:10.777Z,27.38
2018-09-03T03:20:11.022Z,27.09
2018-09-03T03:21:11.262Z,27.19
2018-09-03T03:22:11.504Z,27.00
2018-09-03T03:23:11.747Z,27.38
2018-09-03T03:24:11.988Z,28.15
2018-09-03T03:25:12.235Z,28.24
2018-09-03T03:26:12.474Z,28.34
2018-09-03T03:27:12.719Z,28.44
2018-09-03T03:28:12.958Z,28.24
2018-09-03T03:29:13.201Z,28.05
2018-09-03T03:30:13.443Z,28.81
2018-09-03T03:31:13.685Z,28.81
2018-09-03T03:32:13.928Z,29.11
2018-09-03T03:33:14.173Z,29.30
2018-09-03T03:34:14.413Z,29.58
2018-09-03T03:35:14.655Z,29.97
2018-09-03T03:36:14.897Z,29.77
2018-09-03T03:37:15.140Z,29.68
2018-09-03T03:38:15.386Z,29.77
2018-09-03T03:39:15.623Z,30.06
2018-09-03T03:40:15.868Z,29.39
2018-09-03T03:41:16.110Z,29.77
2018-09-03T03:42:16.352Z,29.77
2018-09-03T03:43:16.594Z,29.97
2018-09-03T03:44:16.837Z,30.26
2018-09-03T03:45:17.077Z,30.54
2018-09-03T03:46:17.324Z,30.44
2018-09-03T03:47:17.563Z,30.73
2018-09-03T03:48:17.809Z,30.73
2018-09-03T03:49:18.049Z,30.83
2018-09-03T03:50:18.289Z,30.73
2018-09-03T03:51:18.532Z,30.73
2018-09-03T03:52:18.774Z,31.69
2018-09-03T03:53:19.016Z,32.17
2018-09-03T03:54:19.259Z,32.75
2018-09-03T03:55:19.504Z,32.84
2018-09-03T03:56:19.743Z,33.03
2018-09-03T03:57:19.986Z,33.51
2018-09-03T03:58:20.229Z,34.37
2018-09-03T03:59:20.471Z,34.75
2018-09-03T04:00:20.714Z,34.85
2018-09-03T04:01:20.955Z,34.66
2018-09-03T04:02:21.196Z,34.18
2018-09-03T04:03:21.440Z,34.28
2018-09-03T04:04:21.679Z,33.99
2018-09-03T04:05:21.923Z,33.70
2018-09-03T04:06:22.164Z,33.80
2018-09-03T04:07:22.406Z,33.70
2018-09-03T04:08:22.649Z,33.70
2018-09-03T04:09:22.892Z,33.32
2018-09-03T04:10:23.133Z,33.32
2018-09-03T04:11:23.375Z,32.84
2018-09-03T04:12:23.620Z,32.46
2018-09-03T04:13:23.859Z,32.17
2018-09-03T04:14:24.100Z,32.07
2018-09-03T04:15:24.344Z,31.79
2018-09-03T04:16:24.585Z,32.26
2018-09-03T04:17:24.827Z,32.65
2018-09-03T04:18:25.069Z,32.55
2018-09-03T04:19:25.310Z,32.26
2018-09-03T04:20:25.552Z,32.36
2018-09-03T04:21:25.794Z,32.46
2018-09-03T04:22:26.036Z,32.65
2018-09-03T04:23:26.512Z,32.26
2018-09-03T04:24:26.521Z,32.93
2018-09-03T04:25:26.761Z,32.75
2018-09-03T04:26:27.004Z,33.12
2018-09-03T04:27:27.247Z,32.84
2018-09-03T04:28:27.489Z,33.51
2018-09-03T04:29:27.731Z,33.89
2018-09-03T04:30:27.972Z,33.70
2018-09-03T04:31:28.216Z,33.70
2018-09-03T04:32:28.459Z,34.08
2018-09-03T04:33:28.698Z,34.08
2018-09-03T04:34:28.940Z,34.08
2018-09-03T04:35:29.182Z,33.70
2018-09-03T04:36:29.425Z,33.70
2018-09-03T04:37:29.666Z,34.08
2018-09-03T04:38:29.908Z,34.28
2018-09-03T04:39:30.150Z,34.28
2018-09-03T04:40:30.393Z,34.47
2018-09-03T04:41:30.634Z,34.85
2018-09-03T04:42:30.877Z,34.66
2018-09-03T04:43:31.120Z,35.71
2018-09-03T04:44:31.361Z,36.47
2018-09-03T04:45:31.603Z,36.19
2018-09-03T04:46:31.845Z,36.96
2018-09-03T04:47:32.088Z,37.05
2018-09-03T04:48:32.331Z,37.34
2018-09-03T04:49:32.574Z,37.72
2018-09-03T04:50:32.815Z,38.01
2018-09-03T04:51:33.062Z,38.78
2018-09-03T04:52:33.302Z,39.64
2018-09-03T04:53:33.543Z,40.02
2018-09-03T04:54:33.799Z,40.21
2018-09-03T04:55:34.029Z,40.78
2018-09-03T04:56:34.272Z,41.36
2018-09-03T04:57:34.514Z,42.32
2018-09-03T04:58:34.756Z,42.70
2018-09-03T04:59:35.003Z,43.47
2018-09-03T05:00:35.263Z,44.71
2018-09-03T05:01:35.504Z,45.86
2018-09-03T05:02:35.747Z,46.62
2018-09-03T05:03:35.988Z,47.30
2018-09-03T05:04:36.230Z,48.07
2018-09-03T05:05:36.472Z,48.44
2018-09-03T05:06:36.747Z,48.64
2018-09-03T05:07:36.960Z,48.66
2018-09-03T05:08:37.200Z,49.14
2018-09-03T05:09:37.443Z,49.91
2018-09-03T05:10:37.684Z,49.91
2018-09-03T05:11:37.950Z,50.48
2018-09-03T05:12:38.168Z,50.96
2018-09-03T05:13:38.411Z,51.34
2018-09-03T05:14:38.652Z,51.92
2018-09-03T05:15:38.896Z,52.69
2018-09-03T05:16:39.138Z,52.47
2018-09-03T05:17:39.380Z,52.11
2018-09-03T05:18:39.622Z,52.59
2018-09-03T05:19:39.861Z,53.16
2018-09-03T05:20:40.099Z,53.07
2018-09-03T05:21:40.342Z,53.36
2018-09-03T05:22:40.585Z,52.59
2018-09-03T05:23:40.821Z,53.14
2018-09-03T05:24:41.068Z,53.14
2018-09-03T05:25:41.310Z,52.56
2018-09-03T05:26:41.553Z,52.69
2018-09-03T05:27:41.796Z,52.09
2018-09-03T05:28:42.037Z,52.01
2018-09-03T05:29:42.280Z,51.92
2018-09-03T05:30:42.522Z,52.20
2018-09-03T05:31:42.764Z,52.20
2018-09-03T05:32:43.005Z,52.11
2018-09-03T05:33:43.248Z,52.50
2018-09-03T05:34:43.490Z,52.97
2018-09-03T05:35:43.732Z,53.45
2018-09-03T05:36:43.983Z,53.64
2018-09-03T05:37:44.236Z,53.64
2018-09-03T05:38:44.494Z,53.45
2018-09-03T05:39:44.747Z,52.40
2018-09-03T05:40:44.988Z,51.92
2018-09-03T05:41:45.246Z,51.92
2018-09-03T05:42:45.490Z,51.34
2018-09-03T05:43:45.800Z,51.63
2018-09-03T05:44:46.004Z,52.69
2018-09-03T05:45:46.248Z,53.16
2018-09-03T05:46:46.502Z,53.74
2018-09-03T05:47:46.752Z,53.74
2018-09-03T05:48:47.006Z,53.64
2018-09-03T05:49:47.257Z,53.45
2018-09-03T05:50:47.571Z,54.50
2018-09-03T05:51:47.749Z,55.56
2018-09-03T05:52:48.006Z,55.94
2018-09-03T05:53:48.252Z,56.23
2018-09-03T05:54:48.512Z,56.23
2018-09-03T05:55:48.757Z,57.09
2018-09-03T05:56:49.033Z,57.41
2018-09-03T05:57:49.284Z,59.68
2018-09-03T05:58:49.544Z,60.73
2018-09-03T05:59:49.799Z,61.05
2018-09-03T06:00:50.041Z,62.07
2018-09-03T06:01:50.375Z,62.36
2018-09-03T06:02:50.623Z,63.13
2018-09-03T06:03:50.884Z,63.89
2018-09-03T06:04:51.190Z,63.60
2018-09-03T06:05:51.395Z,64.69
2018-09-03T06:06:51.634Z,65.17
2018-09-03T06:07:51.887Z,66.09
2018-09-03T06:08:52.155Z,66.13
2018-09-03T06:09:52.388Z,66.89
2018-09-03T06:10:52.637Z,66.89
2018-09-03T06:11:52.880Z,67.09
2018-09-03T06:12:53.122Z,67.76
2018-09-03T06:13:53.364Z,68.72
2018-09-03T06:14:53.608Z,68.91
2018-09-03T06:15:53.865Z,68.62
2018-09-03T06:16:54.129Z,70.15
2018-09-03T06:17:54.483Z,71.21
2018-09-03T06:18:54.645Z,73.03
2018-09-03T06:19:54.890Z,72.94
2018-09-03T06:20:55.147Z,73.22
2018-09-03T06:21:55.546Z,73.03
2018-09-03T06:22:55.818Z,71.98
2018-09-03T06:23:56.079Z,71.69
2018-09-03T06:24:56.329Z,70.96
2018-09-03T06:25:56.580Z,70.35
2018-09-03T06:26:56.817Z,70.73
2018-09-03T06:27:57.086Z,70.38
2018-09-03T06:28:57.346Z,70.67
2018-09-03T06:29:57.595Z,70.67
2018-09-03T06:30:57.838Z,70.67
2018-09-03T06:31:58.081Z,70.76
2018-09-03T06:32:58.341Z,70.86
2018-09-03T06:33:58.570Z,70.67
2018-09-03T06:34:58.814Z,72.01
2018-09-03T06:35:59.104Z,72.20
2018-09-03T06:36:59.300Z,71.82
2018-09-03T06:37:59.545Z,72.39
2018-09-03T06:38:59.785Z,72.81
2018-09-03T06:40:00.029Z,73.10
2018-09-03T06:41:00.272Z,74.26
2018-09-03T06:42:00.514Z,74.73
2018-09-03T06:43:00.758Z,75.02
2018-09-03T06:44:01.002Z,77.90
2018-09-03T06:45:01.250Z,78.57
2018-09-03T06:46:01.491Z,80.20
2018-09-03T06:47:01.734Z,81.64
2018-09-03T06:48:01.979Z,81.74
2018-09-03T06:49:02.221Z,81.45
2018-09-03T06:50:02.466Z,81.26
2018-09-03T06:51:02.708Z,80.78
2018-09-03T06:52:02.951Z,81.45
2018-09-03T06:53:03.195Z,79.53
2018-09-03T06:54:03.437Z,79.34
2018-09-03T06:55:03.681Z,79.34
2018-09-03T06:56:03.925Z,78.47
2018-09-03T06:57:04.173Z,78.28
2018-09-03T06:58:04.412Z,77.61
2018-09-03T06:59:04.658Z,76.46
2018-09-03T07:00:04.898Z,76.56
2018-09-03T07:01:05.143Z,76.37
2018-09-03T07:02:05.384Z,78.28
2018-09-03T07:03:05.629Z,77.80
2018-09-03T07:04:05.873Z,78.13
2018-09-03T07:05:06.117Z,79.24
2018-09-03T07:06:06.361Z,79.86
2018-09-03T07:07:06.605Z,79.96
2018-09-03T07:08:06.848Z,80.43
2018-09-03T07:09:07.093Z,80.53
2018-09-03T07:10:07.338Z,81.87
2018-09-03T07:11:07.583Z,81.10
2018-09-03T07:12:07.824Z,80.91
2018-09-03T07:13:08.069Z,80.57
2018-09-03T07:14:08.314Z,80.91
2018-09-03T07:15:08.557Z,81.87
2018-09-03T07:16:08.801Z,82.10
2018-09-03T07:17:09.047Z,81.53
2018-09-03T07:18:09.289Z,79.99
2018-09-03T07:19:09.533Z,80.38
2018-09-03T07:20:09.777Z,80.38
2018-09-03T07:21:10.022Z,81.72
2018-09-03T07:22:10.265Z,80.19
2018-09-03T07:23:10.508Z,79.71
2018-09-03T07:24:10.753Z,81.43
2018-09-03T07:25:10.997Z,80.76
2018-09-03T07:26:11.240Z,80.28
2018-09-03T07:27:11.484Z,80.86
2018-09-03T07:28:11.728Z,80.47
2018-09-03T07:29:11.972Z,79.90
2018-09-03T07:30:12.217Z,80.24
2018-09-03T07:31:12.460Z,79.86
2018-09-03T07:32:12.707Z,79.28
2018-09-03T07:33:12.952Z,78.70
2018-09-03T07:34:13.196Z,78.03
2018-09-03T07:35:13.454Z,77.56
2018-09-03T07:36:13.683Z,76.31
2018-09-03T07:37:13.928Z,76.65
2018-09-03T07:38:14.173Z,74.64
2018-09-03T07:39:14.415Z,73.00
2018-09-03T07:40:14.660Z,73.39
2018-09-03T07:41:14.906Z,72.81
2018-09-03T07:42:15.149Z,72.05
2018-09-03T07:43:15.392Z,71.66
2018-09-03T07:44:15.700Z,70.80
2018-09-03T07:45:15.879Z,69.26
2018-09-03T07:46:16.124Z,69.26
2018-09-03T07:47:16.367Z,70.90
2018-09-03T07:48:16.641Z,71.19
2018-09-03T07:49:16.854Z,72.43
2018-09-03T07:50:17.098Z,72.56
2018-09-03T07:51:17.344Z,72.63
2018-09-03T07:52:17.586Z,72.75
2018-09-03T07:53:17.829Z,72.81
2018-09-03T07:54:18.072Z,72.33
2018-09-03T07:55:18.316Z,72.72
2018-09-03T07:56:18.558Z,71.66
2018-09-03T07:57:18.802Z,71.95
2018-09-03T07:58:19.045Z,70.13
2018-09-03T07:59:19.289Z,69.65
2018-09-03T08:00:19.532Z,70.13
2018-09-03T08:01:19.804Z,70.13
2018-09-03T08:02:20.020Z,68.88
2018-09-03T08:03:20.260Z,68.02
2018-09-03T08:04:20.507Z,68.69
2018-09-03T08:05:20.748Z,68.12
2018-09-03T08:06:20.991Z,66.39
2018-09-03T08:07:21.254Z,66.49
2018-09-03T08:08:21.480Z,66.00
2018-09-03T08:09:21.722Z,66.19
2018-09-03T08:10:21.967Z,66.00
2018-09-03T08:11:22.211Z,66.00
2018-09-03T08:12:22.450Z,65.81
2018-09-03T08:13:22.696Z,65.43
2018-09-03T08:14:22.937Z,64.66
2018-09-03T08:15:23.179Z,64.66
2018-09-03T08:16:23.423Z,64.95
2018-09-03T08:17:23.666Z,65.91
2018-09-03T08:18:23.910Z,66.23
2018-09-03T08:19:24.160Z,66.90
2018-09-03T08:20:24.400Z,67.57
2018-09-03T08:21:24.643Z,68.34
2018-09-03T08:22:24.887Z,68.40
2018-09-03T08:23:25.131Z,68.69
2018-09-03T08:24:25.374Z,68.59
2018-09-03T08:25:25.617Z,68.12
2018-09-03T08:26:25.863Z,66.77
2018-09-03T08:27:26.106Z,65.23
2018-09-03T08:28:26.348Z,64.18
2018-09-03T08:29:26.592Z,63.70
2018-09-03T08:30:26.838Z,61.49
2018-09-03T08:31:27.081Z,61.02
2018-09-03T08:32:27.323Z,61.40
2018-09-03T08:33:27.569Z,60.25
2018-09-03T08:34:27.812Z,60.25
2018-09-03T08:35:28.065Z,59.48
2018-09-03T08:36:28.298Z,58.14
2018-09-03T08:37:28.548Z,56.70
2018-09-03T08:38:28.787Z,56.51
2018-09-03T08:39:29.031Z,56.89
2018-09-03T08:40:29.275Z,56.89
2018-09-03T08:41:29.517Z,56.98
2018-09-03T08:42:29.766Z,58.33
2018-09-03T08:43:30.005Z,59.58
2018-09-03T08:44:30.249Z,60.28
2018-09-03T08:45:30.494Z,60.75
2018-09-03T08:46:30.734Z,61.91
2018-09-03T08:47:30.982Z,63.06
2018-09-03T08:48:31.223Z,63.16
2018-09-03T08:49:31.466Z,63.83
2018-09-03T08:50:31.710Z,64.89
2018-09-03T08:51:31.954Z,65.46
2018-09-03T08:52:32.199Z,65.27
2018-09-03T08:53:32.445Z,65.56
2018-09-03T08:54:32.688Z,64.79
2018-09-03T08:55:32.933Z,64.05
2018-09-03T08:56:33.175Z,65.75
2018-09-03T08:57:33.420Z,65.01
2018-09-03T08:58:33.664Z,64.72
2018-09-03T08:59:33.908Z,64.82
2018-09-03T09:00:34.154Z,67.41
2018-09-03T09:01:34.396Z,66.93
2018-09-03T09:02:34.643Z,67.70
2018-09-03T09:03:34.884Z,66.68
2018-09-03T09:04:35.129Z,67.22
2018-09-03T09:05:35.372Z,68.28
2018-09-03T09:06:35.620Z,65.97
2018-09-03T09:07:35.862Z,64.82
2018-09-03T09:08:36.110Z,64.72
2018-09-03T09:09:36.351Z,64.66
2018-09-03T09:10:36.595Z,66.07
2018-09-03T09:11:36.901Z,66.26
2018-09-03T09:12:37.085Z,63.48
2018-09-03T09:13:37.329Z,62.04
2018-09-03T09:14:37.572Z,62.39
2018-09-03T09:15:37.818Z,61.24
2018-09-03T09:16:38.062Z,58.55
2018-09-03T09:17:38.350Z,56.53
2018-09-03T09:18:38.556Z,55.67
2018-09-03T09:19:38.797Z,55.10
2018-09-03T09:20:39.042Z,54.80
2018-09-03T09:21:39.291Z,56.34
2018-09-03T09:22:39.533Z,56.63
2018-09-03T09:23:39.775Z,57.40
2018-09-03T09:24:40.019Z,58.36
2018-09-03T09:25:40.263Z,58.45
2018-09-03T09:26:40.508Z,58.26
2018-09-03T09:27:40.752Z,57.88
2018-09-03T09:28:40.998Z,57.50
2018-09-03T09:29:41.241Z,56.34
2018-09-03T09:30:41.485Z,55.74
2018-09-03T09:31:41.730Z,55.16
2018-09-03T09:32:41.973Z,54.33
2018-09-03T09:33:42.217Z,54.30
2018-09-03T09:34:42.461Z,55.45
2018-09-03T09:35:42.740Z,54.58
2018-09-03T09:36:42.959Z,54.78
2018-09-03T09:37:43.192Z,53.53
2018-09-03T09:38:43.441Z,54.39
2018-09-03T09:39:43.678Z,54.49
2018-09-03T09:40:43.924Z,53.44
2018-09-03T09:41:44.168Z,54.42
2018-09-03T09:42:44.419Z,56.53
2018-09-03T09:43:44.657Z,60.18
2018-09-03T09:44:44.904Z,59.99
2018-09-03T09:45:45.145Z,58.17
2018-09-03T09:46:45.388Z,59.22
2018-09-03T09:47:45.632Z,59.70
2018-09-03T09:48:45.875Z,58.26
2018-09-03T09:49:46.120Z,57.56
2018-09-03T09:50:46.365Z,57.11
2018-09-03T09:51:46.605Z,57.97
2018-09-03T09:52:46.850Z,56.63
2018-09-03T09:53:47.095Z,56.63
2018-09-03T09:54:47.361Z,58.45
2018-09-03T09:55:47.582Z,58.94
2018-09-03T09:56:47.824Z,59.32
2018-09-03T09:57:48.070Z,57.97
2018-09-03T09:58:48.314Z,58.55
2018-09-03T09:59:48.555Z,56.53
2018-09-03T10:00:48.803Z,57.30
2018-09-03T10:01:49.043Z,56.34
2018-09-03T10:02:49.287Z,56.73
2018-09-03T10:03:49.531Z,58.17
2018-09-03T10:04:49.775Z,56.73
2018-09-03T10:05:50.017Z,56.05
2018-09-03T10:06:50.262Z,58.07
2018-09-03T10:07:50.507Z,58.74
2018-09-03T10:08:50.749Z,59.12
2018-09-03T10:09:50.992Z,56.53
2018-09-03T10:10:51.236Z,56.34
2018-09-03T10:11:51.483Z,55.77
2018-09-03T10:12:51.723Z,54.90
2018-09-03T10:13:51.966Z,55.29
2018-09-03T10:14:52.213Z,56.24
2018-09-03T10:15:52.453Z,55.96
2018-09-03T10:16:52.700Z,55.67
2018-09-03T10:17:52.943Z,57.59
2018-09-03T10:18:53.186Z,56.53
2018-09-03T10:19:53.430Z,56.44
2018-09-03T10:20:53.721Z,54.80
2018-09-03T10:21:53.918Z,54.33
2018-09-03T10:22:54.162Z,55.10
2018-09-03T10:23:54.405Z,56.18
2018-09-03T10:24:54.654Z,56.46
2018-09-03T10:25:54.892Z,56.95
2018-09-03T10:26:55.137Z,58.67
2018-09-03T10:27:55.381Z,59.92
2018-09-03T10:28:55.625Z,60.40
2018-09-03T10:29:55.868Z,60.11
2018-09-03T10:30:56.115Z,60.40
2018-09-03T10:31:56.406Z,60.40
2018-09-03T10:32:56.602Z,59.76
2018-09-03T10:33:56.846Z,59.57
2018-09-03T10:34:57.091Z,61.36
2018-09-03T10:35:57.335Z,61.20
2018-09-03T10:36:57.580Z,60.40
2018-09-03T10:37:57.823Z,59.92
2018-09-03T10:38:58.067Z,61.46
2018-09-03T10:39:58.321Z,60.40
2018-09-03T10:40:58.557Z,59.83
2018-09-03T10:41:58.805Z,59.06
2018-09-03T10:42:59.045Z,58.67
2018-09-03T10:43:59.289Z,59.54
2018-09-03T10:44:59.534Z,61.36
2018-09-03T10:45:59.779Z,60.40
2018-09-03T10:47:00.034Z,59.54
2018-09-03T10:48:00.266Z,58.00
2018-09-03T10:49:00.518Z,57.71
2018-09-03T10:50:00.758Z,57.81
2018-09-03T10:51:01.000Z,57.62
2018-09-03T10:52:01.244Z,57.04
2018-09-03T10:53:01.489Z,56.66
2018-09-03T10:54:01.734Z,57.90
2018-09-03T10:55:01.977Z,56.46
2018-09-03T10:56:02.275Z,55.99
2018-09-03T10:57:02.465Z,57.52
2018-09-03T10:58:02.711Z,57.62
2018-09-03T10:59:02.956Z,55.41
2018-09-03T11:00:03.198Z,56.46
2018-09-03T11:01:03.445Z,57.43
2018-09-03T11:02:03.689Z,55.99
2018-09-03T11:03:03.932Z,56.49
2018-09-03T11:04:04.181Z,59.16
2018-09-03T11:05:04.428Z,58.00
2018-09-03T11:06:04.667Z,56.76
2018-09-03T11:07:04.910Z,56.95
2018-09-03T11:08:05.155Z,56.56
2018-09-03T11:09:05.398Z,56.76
2018-09-03T11:10:05.643Z,54.55
2018-09-03T11:11:05.888Z,53.68
2018-09-03T11:12:06.133Z,52.81
2018-09-03T11:13:06.389Z,53.58
2018-09-03T11:14:06.654Z,53.49
2018-09-03T11:15:06.864Z,52.72
2018-09-03T11:16:07.116Z,51.18
2018-09-03T11:17:07.354Z,50.32
2018-09-03T11:18:07.599Z,50.90
2018-09-03T11:19:07.843Z,52.14
2018-09-03T11:20:08.144Z,52.91
2018-09-03T11:21:08.394Z,53.42
2018-09-03T11:22:08.578Z,53.90
2018-09-03T11:23:08.825Z,53.42
2018-09-03T11:24:09.067Z,54.77
2018-09-03T11:25:09.356Z,53.80
2018-09-03T11:26:09.555Z,55.89
2018-09-03T11:27:09.813Z,56.01
2018-09-03T11:28:10.046Z,54.55
2018-09-03T11:29:10.290Z,54.55
2018-09-03T11:30:10.534Z,52.91
2018-09-03T11:31:10.779Z,52.55
2018-09-03T11:32:11.023Z,51.98
2018-09-03T11:33:11.269Z,52.55
2018-09-03T11:34:11.513Z,52.34
2018-09-03T11:35:11.772Z,53.78
2018-09-03T11:36:12.005Z,54.16
2018-09-03T11:37:12.248Z,52.72
2018-09-03T11:38:12.492Z,51.18
2018-09-03T11:39:12.736Z,51.09
2018-09-03T11:40:12.981Z,50.80
2018-09-03T11:41:13.225Z,49.65
2018-09-03T11:42:13.471Z,48.21
2018-09-03T11:43:13.718Z,48.97
2018-09-03T11:44:13.963Z,48.69
2018-09-03T11:45:14.208Z,48.40
2018-09-03T11:46:14.452Z,46.28
2018-09-03T11:47:14.779Z,46.19
2018-09-03T11:48:14.941Z,47.44
2018-09-03T11:49:15.185Z,46.38
2018-09-03T11:50:15.444Z,46.19
2018-09-03T11:51:15.689Z,45.71
2018-09-03T11:52:15.933Z,44.56
2018-09-03T11:53:16.177Z,43.60
2018-09-03T11:54:16.430Z,44.94
2018-09-03T11:55:16.667Z,43.40
2018-09-03T11:56:16.912Z,42.93
2018-09-03T11:57:17.156Z,41.58
2018-09-03T11:58:17.405Z,42.73
2018-09-03T11:59:17.646Z,42.54
2018-09-03T12:00:17.894Z,41.67
2018-09-03T12:01:18.136Z,41.00
2018-09-03T12:02:18.379Z,40.81
2018-09-03T12:03:18.623Z,42.83
2018-09-03T12:04:18.866Z,42.06
2018-09-03T12:05:19.109Z,40.81
2018-09-03T12:06:19.354Z,41.87
2018-09-03T12:07:19.597Z,41.10
2018-09-03T12:08:19.843Z,41.96
2018-09-03T12:09:20.086Z,42.54
2018-09-03T12:10:20.329Z,40.52
2018-09-03T12:11:20.573Z,40.23
2018-09-03T12:12:20.818Z,39.47
2018-09-03T12:13:21.062Z,39.28
2018-09-03T12:14:21.309Z,39.83
2018-09-03T12:15:21.554Z,39.26
2018-09-03T12:16:21.799Z,38.49
2018-09-03T12:17:22.044Z,38.10
2018-09-03T12:18:22.285Z,36.58
2018-09-03T12:19:22.531Z,36.40
2018-09-03T12:20:22.775Z,37.55
2018-09-03T12:21:23.015Z,37.43
2018-09-03T12:22:23.259Z,39.26
2018-09-03T12:23:23.503Z,37.15
2018-09-03T12:24:23.748Z,36.86
2018-09-03T12:25:23.990Z,36.38
2018-09-03T12:26:24.235Z,35.61
2018-09-03T12:27:24.480Z,34.55
2018-09-03T12:28:24.723Z,35.61
2018-09-03T12:29:24.964Z,35.89
2018-09-03T12:30:25.209Z,35.13
2018-09-03T12:31:25.471Z,34.19
2018-09-03T12:32:25.700Z,34.09
2018-09-03T12:33:25.944Z,34.47
2018-09-03T12:34:26.188Z,33.61
2018-09-03T12:35:26.429Z,35.05
2018-09-03T12:36:26.673Z,35.43
2018-09-03T12:37:26.915Z,35.43
2018-09-03T12:38:27.160Z,35.82
2018-09-03T12:39:27.403Z,34.28
2018-09-03T12:40:27.673Z,32.55
2018-09-03T12:41:27.953Z,33.70
2018-09-03T12:42:28.211Z,35.53
2018-09-03T12:43:28.456Z,36.49
2018-09-03T12:44:28.699Z,36.30
2018-09-03T12:45:28.947Z,37.91
2018-09-03T12:46:29.211Z,34.65
2018-09-03T12:47:29.430Z,34.75
2018-09-03T12:48:29.673Z,35.14
2018-09-03T12:49:29.916Z,35.22
2018-09-03T12:50:30.160Z,35.91
2018-09-03T12:51:30.403Z,36.40
2018-09-03T12:52:30.648Z,34.38
2018-09-03T12:53:30.890Z,34.47
2018-09-03T12:54:31.134Z,34.47
2018-09-03T12:55:31.378Z,36.40
2018-09-03T12:56:31.620Z,37.26
2018-09-03T12:57:31.865Z,42.06
2018-09-03T12:58:32.159Z,45.04